Search for airport 
image banner adimage banner adimage banner ad
image banner ad

NV40 - Action

Located in Las Vegas, United States

ICAO - NV40, IATA -

Data provided by Airmate  

General information

Coordinates: N35°57'0" W115°10'0"
Elevation is 2460 feet MSL.
Magnetic variation is 14° East
View others Airports in Nevada

Operational data

Special qualification required
Current time UTC:
Current local time:
Weather at : KHND - Henderson Executive ( 4 km )
METAR: KHND 130256Z 13006KT 10SM CLR 36/M08 A2981 RMK AO2 SLP077 T03611083 55004
TAF: KHND 122320Z 1300/1324 15010KT P6SM SKC FM130400 19010KT P6SM SKC FM131200 VRB05KT P6SM FEW250 FM132100 20015G25KT P6SM FEW250
View NOTAMs / SUP AIP / TFR affecting this airport [VIEW]
Communications frequencies: [VIEW]

Runways:

Airport contact information

Address: Las Vegas United States

Satellite view of NV40